Time;durP1;ratioP1;P1;durP2;ratioP2;P2;SDS_P1;SDS_P2;PMS_P1;PMS_P2;Temp;Humidity;BMP_temperature;BMP_pressure;BME280_temperature;BME280_humidity;BME280_pressure;Samples;Min_cycle;Max_cycle;Signal;HPM_P1;HPM_P2
2022/03/12 00:02:39;;;;;;;22.02;9.48;;;;;;;;;;8269013;28;20055;-78
2022/03/12 00:06:43;;;;;;;25.08;8.45;;;;;;;;;;8268655;28;20068;-79
2022/03/12 00:10:50;;;;;;;19.88;8.75;;;;;;;;;;8268679;28;20054;-78
2022/03/12 00:14:53;;;;;;;20.48;8.80;;;;;;;;;;8268763;28;20430;-78
2022/03/12 00:18:58;;;;;;;22.50;8.55;;;;;;;;;;8268654;28;20101;-78
2022/03/12 00:23:02;;;;;;;23.55;8.55;;;;;;;;;;8269010;28;20478;-77
2022/03/12 00:27:06;;;;;;;31.02;10.63;;;;;;;;;;8252415;28;20078;-77
2022/03/12 00:31:09;;;;;;;26.50;9.95;;;;;;;;;;8268128;28;20197;-78
2022/03/12 00:35:11;;;;;;;28.45;9.80;;;;;;;;;;8289126;28;20061;-79
2022/03/12 00:39:16;;;;;;;30.85;8.98;;;;;;;;;;8300271;28;20046;-78
2022/03/12 00:43:19;;;;;;;24.15;8.85;;;;;;;;;;8300146;28;20053;-78
2022/03/12 00:47:21;;;;;;;21.25;8.35;;;;;;;;;;8300139;28;20038;-77
2022/03/12 00:51:24;;;;;;;27.27;7.72;;;;;;;;;;8299808;28;20046;-77
2022/03/12 00:55:29;;;;;;;19.27;8.15;;;;;;;;;;8299795;28;20052;-78
2022/03/12 00:59:31;;;;;;;30.92;10.90;;;;;;;;;;8299647;28;20061;-78
2022/03/12 01:03:35;;;;;;;21.55;9.00;;;;;;;;;;8299585;28;20049;-77
2022/03/12 01:07:37;;;;;;;15.90;8.10;;;;;;;;;;8299890;28;20046;-77
2022/03/12 01:11:43;;;;;;;32.53;8.93;;;;;;;;;;8299194;28;20058;-79
2022/03/12 01:15:45;;;;;;;34.40;11.35;;;;;;;;;;8298661;28;20053;-77
2022/03/12 01:19:48;;;;;;;30.38;13.13;;;;;;;;;;8298525;28;20493;-78
2022/03/12 01:23:51;;;;;;;22.63;9.73;;;;;;;;;;8298793;28;20101;-77
2022/03/12 01:27:56;;;;;;;21.38;10.25;;;;;;;;;;8298714;28;20486;-77
2022/03/12 01:31:58;;;;;;;35.75;11.30;;;;;;;;;;8298619;28;20494;-78
2022/03/12 01:36:01;;;;;;;23.38;9.77;;;;;;;;;;8298560;28;20587;-77
2022/03/12 01:40:04;;;;;;;22.25;9.02;;;;;;;;;;8298583;28;20092;-78
2022/03/12 01:44:08;;;;;;;14.95;6.65;;;;;;;;;;8298424;28;20528;-76
2022/03/12 01:48:11;;;;;;;29.85;11.80;;;;;;;;;;8298419;28;20050;-77
2022/03/12 01:52:14;;;;;;;14.93;7.22;;;;;;;;;;8297034;28;20088;-77
2022/03/12 01:56:16;;;;;;;18.20;8.60;;;;;;;;;;8296246;28;20042;-77
2022/03/12 02:00:30;;;;;;;23.10;8.88;;;;;;;;;;8298034;28;20045;-77
2022/03/12 02:04:33;;;;;;;22.15;7.90;;;;;;;;;;8298058;28;20046;-77
2022/03/12 02:08:35;;;;;;;16.27;6.43;;;;;;;;;;8297939;28;20050;-77
2022/03/12 02:12:38;;;;;;;23.20;8.55;;;;;;;;;;8297481;28;20052;-78
2022/03/12 02:16:46;;;;;;;19.38;7.07;;;;;;;;;;8297978;28;20057;-77
2022/03/12 02:20:49;;;;;;;18.42;7.63;;;;;;;;;;8297673;28;20057;-77
2022/03/12 02:24:53;;;;;;;15.27;7.38;;;;;;;;;;8297722;28;20050;-77
2022/03/12 02:28:57;;;;;;;22.80;7.63;;;;;;;;;;8297637;28;20416;-77
2022/03/12 02:33:01;;;;;;;18.75;8.30;;;;;;;;;;8304266;28;20384;-76
2022/03/12 02:37:04;;;;;;;27.00;8.90;;;;;;;;;;8304195;28;20481;-75
2022/03/12 02:41:11;;;;;;;14.55;6.63;;;;;;;;;;8304197;28;20394;-75
2022/03/12 02:45:13;;;;;;;13.23;5.30;;;;;;;;;;8303857;28;20073;-76
2022/03/12 02:49:17;;;;;;;14.35;6.75;;;;;;;;;;8303618;28;20057;-75
2022/03/12 02:53:19;;;;;;;15.52;7.20;;;;;;;;;;8304044;28;20409;-76
2022/03/12 02:57:25;;;;;;;15.73;6.32;;;;;;;;;;8303418;28;20042;-75
2022/03/12 03:01:28;;;;;;;17.83;7.32;;;;;;;;;;8303534;28;20092;-75
2022/03/12 03:05:36;;;;;;;20.85;7.30;;;;;;;;;;8303280;28;20072;-75
2022/03/12 03:09:39;;;;;;;13.13;6.28;;;;;;;;;;8303462;28;20544;-76
2022/03/12 03:13:44;;;;;;;25.20;7.00;;;;;;;;;;8303033;28;20046;-77
2022/03/12 03:17:47;;;;;;;14.85;7.57;;;;;;;;;;8302511;28;20096;-78
2022/03/12 03:21:50;;;;;;;13.15;6.55;;;;;;;;;;8291999;28;20054;-77
2022/03/12 03:25:52;;;;;;;23.48;9.88;;;;;;;;;;8302605;28;20112;-77
2022/03/12 03:29:57;;;;;;;17.52;8.02;;;;;;;;;;8302423;28;20042;-77
2022/03/12 03:34:00;;;;;;;19.15;6.47;;;;;;;;;;8302103;28;20576;-77
2022/03/12 03:38:02;;;;;;;14.20;7.43;;;;;;;;;;8302030;28;20046;-76
2022/03/12 03:42:05;;;;;;;24.55;7.15;;;;;;;;;;8301572;28;20054;-75
2022/03/12 03:46:09;;;;;;;22.90;8.43;;;;;;;;;;8301929;28;20049;-77
2022/03/12 03:50:12;;;;;;;36.53;10.13;;;;;;;;;;8301771;28;20049;-76
2022/03/12 03:54:15;;;;;;;20.67;6.70;;;;;;;;;;8302234;28;20500;-74
2022/03/12 03:58:17;;;;;;;24.35;9.55;;;;;;;;;;8302167;28;20085;-74
2022/03/12 04:02:21;;;;;;;23.42;10.43;;;;;;;;;;8301593;28;20049;-76
2022/03/12 04:06:25;;;;;;;26.88;9.20;;;;;;;;;;8301363;28;20052;-77
2022/03/12 04:10:28;;;;;;;18.35;6.72;;;;;;;;;;8301667;28;20073;-77
2022/03/12 04:14:31;;;;;;;23.80;9.10;;;;;;;;;;8301469;28;20049;-77
2022/03/12 04:18:36;;;;;;;19.73;8.48;;;;;;;;;;8301110;28;20052;-77
2022/03/12 04:22:39;;;;;;;23.88;7.40;;;;;;;;;;8300903;28;20096;-77
2022/03/12 04:26:42;;;;;;;21.08;8.32;;;;;;;;;;8300773;28;20111;-78
2022/03/12 04:30:45;;;;;;;13.85;7.40;;;;;;;;;;8300973;28;20054;-77
2022/03/12 04:34:49;;;;;;;27.65;7.60;;;;;;;;;;8299870;28;20062;-77
2022/03/12 04:38:52;;;;;;;19.17;10.10;;;;;;;;;;8299961;28;20048;-78
2022/03/12 04:42:55;;;;;;;23.55;8.00;;;;;;;;;;8299985;28;20049;-77
2022/03/12 04:46:57;;;;;;;16.10;8.95;;;;;;;;;;8300045;28;20125;-77
2022/03/12 04:51:02;;;;;;;21.25;7.40;;;;;;;;;;8299886;28;20054;-77
2022/03/12 04:55:09;;;;;;;16.13;8.02;;;;;;;;;;8298983;28;20054;-77
2022/03/12 04:59:14;;;;;;;22.05;7.72;;;;;;;;;;8300084;28;20046;-78
2022/03/12 05:03:20;;;;;;;15.77;7.53;;;;;;;;;;8298892;28;20125;-77
2022/03/12 05:07:26;;;;;;;44.55;13.15;;;;;;;;;;8299529;28;20049;-77
2022/03/12 05:11:28;;;;;;;41.72;19.17;;;;;;;;;;8294115;28;20058;-76
2022/03/12 05:15:37;;;;;;;40.70;14.07;;;;;;;;;;8295551;28;20514;-77
2022/03/12 05:19:40;;;;;;;43.40;16.95;;;;;;;;;;8298821;28;20056;-76
2022/03/12 05:23:44;;;;;;;60.53;21.33;;;;;;;;;;8298251;28;20042;-79
2022/03/12 05:27:47;;;;;;;56.20;15.75;;;;;;;;;;8298475;28;20069;-76
2022/03/12 05:31:52;;;;;;;54.28;19.85;;;;;;;;;;8298703;28;20050;-76
2022/03/12 05:35:56;;;;;;;29.23;11.70;;;;;;;;;;8298278;28;20133;-77
2022/03/12 05:40:00;;;;;;;18.42;6.80;;;;;;;;;;8297304;28;20050;-78
2022/03/12 05:44:03;;;;;;;19.67;8.40;;;;;;;;;;8298652;28;20482;-78
2022/03/12 05:48:08;;;;;;;17.45;7.05;;;;;;;;;;8297557;28;20042;-77
2022/03/12 05:52:11;;;;;;;24.35;7.82;;;;;;;;;;8297958;28;20050;-78
2022/03/12 05:56:18;;;;;;;55.90;19.42;;;;;;;;;;8296513;28;20124;-79
2022/03/12 06:00:20;;;;;;;23.65;9.50;;;;;;;;;;8291442;28;20046;-77
2022/03/12 06:04:26;;;;;;;27.50;12.60;;;;;;;;;;8294259;28;20402;-77
2022/03/12 06:08:29;;;;;;;30.60;13.55;;;;;;;;;;8295557;28;20053;-76
2022/03/12 06:12:34;;;;;;;37.58;14.88;;;;;;;;;;8297972;28;20482;-75
2022/03/12 06:16:37;;;;;;;20.15;10.10;;;;;;;;;;8295417;28;20045;-75
2022/03/12 06:20:42;;;;;;;85.95;33.97;;;;;;;;;;8295846;28;20410;-76
2022/03/12 06:24:46;;;;;;;57.42;20.73;;;;;;;;;;8297571;28;20077;-75
2022/03/12 06:28:51;;;;;;;24.08;10.93;;;;;;;;;;8302339;28;20046;-75
2022/03/12 06:32:55;;;;;;;27.55;11.88;;;;;;;;;;8297042;28;20073;-78
2022/03/12 06:36:59;;;;;;;21.23;8.80;;;;;;;;;;8298059;28;20061;-76
2022/03/12 06:41:01;;;;;;;17.70;9.30;;;;;;;;;;8306750;28;20053;-78
2022/03/12 06:45:10;;;;;;;34.25;11.90;;;;;;;;;;8308903;28;20466;-77
2022/03/12 06:49:13;;;;;;;25.30;11.02;;;;;;;;;;8265049;28;20042;-78
2022/03/12 06:53:24;;;;;;;31.80;13.57;;;;;;;;;;8287843;28;20375;-76
2022/03/12 06:57:27;;;;;;;23.00;8.27;;;;;;;;;;8297134;28;20053;-78
2022/03/12 07:01:32;;;;;;;29.77;11.60;;;;;;;;;;8298175;28;20077;-77
2022/03/12 07:05:35;;;;;;;21.95;10.45;;;;;;;;;;8301008;28;20050;-79
2022/03/12 07:09:41;;;;;;;19.25;10.60;;;;;;;;;;8287206;28;20053;-75
2022/03/12 07:13:45;;;;;;;17.85;8.07;;;;;;;;;;8296517;28;20046;-74
2022/03/12 07:17:49;;;;;;;18.77;9.65;;;;;;;;;;8265385;28;20046;-78
2022/03/12 07:21:54;;;;;;;20.83;9.35;;;;;;;;;;8297047;28;20053;-77
2022/03/12 07:25:57;;;;;;;20.83;10.40;;;;;;;;;;8300979;28;20425;-75
2022/03/12 07:30:02;;;;;;;27.48;13.50;;;;;;;;;;8302544;28;20119;-78
2022/03/12 07:34:09;;;;;;;67.90;23.17;;;;;;;;;;8302131;28;20057;-76
2022/03/12 07:38:11;;;;;;;20.25;10.00;;;;;;;;;;8302246;28;20049;-78
2022/03/12 07:42:15;;;;;;;17.75;9.70;;;;;;;;;;8301422;28;20124;-78
2022/03/12 07:46:17;;;;;;;30.60;14.80;;;;;;;;;;8293300;28;20061;-76
2022/03/12 07:50:22;;;;;;;24.60;12.20;;;;;;;;;;8297160;28;20046;-78
2022/03/12 07:54:25;;;;;;;34.75;16.30;;;;;;;;;;8274985;28;20046;-78
2022/03/12 07:58:29;;;;;;;40.75;26.38;;;;;;;;;;8299543;28;20133;-79
2022/03/12 08:02:32;;;;;;;20.17;11.55;;;;;;;;;;8295953;28;20046;-79
2022/03/12 08:06:37;;;;;;;21.80;12.00;;;;;;;;;;8293261;28;20050;-78
2022/03/12 08:14:57;;;;;;;23.27;11.48;;;;;;;;;;8296297;28;20049;-78
2022/03/12 08:19:00;;;;;;;43.55;19.85;;;;;;;;;;8293594;28;20050;-74
2022/03/12 08:23:08;;;;;;;29.75;15.40;;;;;;;;;;8291742;28;20048;-74
2022/03/12 08:27:14;;;;;;;19.10;8.77;;;;;;;;;;8294487;28;20045;-79
2022/03/12 08:31:18;;;;;;;20.08;9.57;;;;;;;;;;8293844;28;20125;-74
2022/03/12 08:35:21;;;;;;;21.83;11.35;;;;;;;;;;8290840;28;20057;-76
2022/03/12 08:39:27;;;;;;;22.55;12.48;;;;;;;;;;8296726;28;20053;-74
2022/03/12 08:43:30;;;;;;;22.95;10.55;;;;;;;;;;8298310;28;20073;-73
2022/03/12 08:47:36;;;;;;;18.88;8.32;;;;;;;;;;8300123;28;20136;-73
2022/03/12 08:51:41;;;;;;;18.88;8.93;;;;;;;;;;8291996;28;20104;-74
2022/03/12 08:55:46;;;;;;;19.13;8.60;;;;;;;;;;8295351;28;20092;-74
2022/03/12 08:59:49;;;;;;;18.85;8.15;;;;;;;;;;8292680;28;20206;-73
2022/03/12 09:03:55;;;;;;;16.13;7.15;;;;;;;;;;8295853;28;20509;-73
2022/03/12 09:08:02;;;;;;;14.90;8.05;;;;;;;;;;8293446;28;20409;-74
2022/03/12 09:12:11;;;;;;;14.63;7.03;;;;;;;;;;8284886;28;20108;-74
2022/03/12 09:16:16;;;;;;;13.65;6.20;;;;;;;;;;8292830;28;20068;-75
2022/03/12 09:20:23;;;;;;;16.00;7.55;;;;;;;;;;8292244;28;20081;-73
2022/03/12 09:24:25;;;;;;;17.48;8.63;;;;;;;;;;8280213;28;20298;-72
2022/03/12 09:28:30;;;;;;;29.38;16.85;;;;;;;;;;8287820;28;20054;-72
2022/03/12 09:32:33;;;;;;;15.30;8.35;;;;;;;;;;8286895;28;20080;-75
2022/03/12 09:36:40;;;;;;;22.45;11.13;;;;;;;;;;8281994;28;20101;-72
2022/03/12 09:40:44;;;;;;;14.20;7.55;;;;;;;;;;8297216;28;20037;-73
2022/03/12 09:44:49;;;;;;;35.92;14.98;;;;;;;;;;8274388;28;20046;-75
2022/03/12 09:48:52;;;;;;;20.95;7.85;;;;;;;;;;8274681;28;20414;-73
2022/03/12 09:52:55;;;;;;;13.32;6.03;;;;;;;;;;8282786;28;20054;-72
2022/03/12 09:56:58;;;;;;;14.85;7.05;;;;;;;;;;8285757;28;20045;-75
2022/03/12 10:01:04;;;;;;;13.35;6.90;;;;;;;;;;8283078;28;20128;-72
2022/03/12 10:05:11;;;;;;;27.85;10.38;;;;;;;;;;8297706;28;20045;-76
2022/03/12 10:09:14;;;;;;;28.27;10.68;;;;;;;;;;8285940;28;20411;-72
2022/03/12 10:13:18;;;;;;;14.48;6.68;;;;;;;;;;8254690;28;20506;-74
2022/03/12 10:17:23;;;;;;;13.02;5.63;;;;;;;;;;8286458;28;20042;-74
2022/03/12 10:21:26;;;;;;;12.25;5.35;;;;;;;;;;8320092;28;20536;-73
2022/03/12 10:25:30;;;;;;;17.50;9.63;;;;;;;;;;8297236;28;20100;-74
2022/03/12 10:29:34;;;;;;;21.67;7.95;;;;;;;;;;8276109;28;20145;-77
2022/03/12 10:33:39;;;;;;;13.18;5.47;;;;;;;;;;8292107;28;20065;-73
2022/03/12 10:37:42;;;;;;;9.43;4.80;;;;;;;;;;8273252;28;20491;-76
2022/03/12 10:41:47;;;;;;;9.70;4.40;;;;;;;;;;8288315;28;20058;-73
2022/03/12 10:45:53;;;;;;;17.48;7.80;;;;;;;;;;8288025;28;20493;-81
2022/03/12 10:50:01;;;;;;;10.35;4.75;;;;;;;;;;8291345;28;20054;-74
2022/03/12 10:54:07;;;;;;;9.77;4.20;;;;;;;;;;8296619;28;20042;-78
2022/03/12 10:58:12;;;;;;;8.68;3.80;;;;;;;;;;8299632;28;20061;-74
2022/03/12 11:02:16;;;;;;;8.48;4.10;;;;;;;;;;8298692;28;20129;-74
2022/03/12 11:06:24;;;;;;;8.98;3.47;;;;;;;;;;8298490;28;20041;-82
2022/03/12 11:10:33;;;;;;;7.30;3.60;;;;;;;;;;8292944;28;20049;-74
2022/03/12 11:14:37;;;;;;;8.68;3.92;;;;;;;;;;8298122;28;20413;-76
2022/03/12 11:18:47;;;;;;;9.48;3.72;;;;;;;;;;8300414;28;20049;-74
2022/03/12 11:23:06;;;;;;;12.40;4.47;;;;;;;;;;8300199;28;20045;-77
2022/03/12 11:27:12;;;;;;;197.40;52.00;;;;;;;;;;8293243;28;20049;-75
2022/03/12 11:31:16;;;;;;;54.63;16.98;;;;;;;;;;8300350;28;20089;-74
2022/03/12 11:35:21;;;;;;;36.78;12.35;;;;;;;;;;8299658;28;20092;-75
2022/03/12 11:39:30;;;;;;;23.27;8.48;;;;;;;;;;8300212;28;20073;-74
2022/03/12 11:43:38;;;;;;;16.55;6.20;;;;;;;;;;8300195;28;20054;-74
2022/03/12 11:47:44;;;;;;;8.77;4.10;;;;;;;;;;8297606;28;20038;-75
2022/03/12 11:51:47;;;;;;;10.30;4.35;;;;;;;;;;8299819;28;20041;-80
2022/03/12 11:55:53;;;;;;;7.60;3.15;;;;;;;;;;8273781;28;20485;-76
2022/03/12 12:00:02;;;;;;;8.35;4.10;;;;;;;;;;8284378;28;20092;-80
2022/03/12 12:04:15;;;;;;;10.05;3.78;;;;;;;;;;8288623;28;20108;-79
2022/03/12 12:08:37;;;;;;;7.85;3.85;;;;;;;;;;8274761;28;20068;-79
2022/03/12 12:13:03;;;;;;;8.55;3.97;;;;;;;;;;8290435;28;20054;-74
2022/03/12 12:17:19;;;;;;;9.68;3.90;;;;;;;;;;8304438;28;20045;-73
2022/03/12 12:21:38;;;;;;;10.73;5.60;;;;;;;;;;8320288;28;20037;-74
2022/03/12 12:25:58;;;;;;;7.72;3.45;;;;;;;;;;8293022;28;20045;-72
2022/03/12 12:30:07;;;;;;;9.15;3.85;;;;;;;;;;8307365;28;20133;-73
2022/03/12 12:34:10;;;;;;;7.10;4.00;;;;;;;;;;8323603;28;20053;-76
2022/03/12 12:38:18;;;;;;;10.23;5.15;;;;;;;;;;8305207;28;20405;-73
2022/03/12 12:42:38;;;;;;;9.90;4.35;;;;;;;;;;8310539;28;20041;-75
2022/03/12 12:46:43;;;;;;;7.93;3.42;;;;;;;;;;8333035;28;20045;-75
2022/03/12 12:51:10;;;;;;;9.30;4.30;;;;;;;;;;8311809;28;20132;-75
2022/03/12 12:55:25;;;;;;;12.50;4.30;;;;;;;;;;8319193;28;20387;-75
2022/03/12 12:59:41;;;;;;;7.00;3.20;;;;;;;;;;8299920;28;20069;-75
2022/03/12 13:03:56;;;;;;;7.43;3.28;;;;;;;;;;8299788;28;20041;-75
2022/03/12 13:08:02;;;;;;;40.63;15.82;;;;;;;;;;8310340;28;20088;-75
2022/03/12 13:12:07;;;;;;;7.85;4.07;;;;;;;;;;8331935;28;20056;-76
2022/03/12 13:16:24;;;;;;;23.25;12.27;;;;;;;;;;8331289;28;20052;-75
2022/03/12 13:20:42;;;;;;;46.58;20.52;;;;;;;;;;8332164;28;20477;-75
2022/03/12 13:24:48;;;;;;;6.72;3.50;;;;;;;;;;8331725;28;20055;-78
2022/03/12 13:29:06;;;;;;;8.85;3.40;;;;;;;;;;8332106;28;20115;-78
2022/03/12 13:33:22;;;;;;;7.80;3.45;;;;;;;;;;8331275;28;20057;-81
2022/03/12 13:37:30;;;;;;;9.63;3.60;;;;;;;;;;8330794;28;20057;-77
2022/03/12 13:41:33;;;;;;;6.93;3.40;;;;;;;;;;8303201;28;20042;-74
2022/03/12 13:45:38;;;;;;;8.95;3.17;;;;;;;;;;8297894;28;20049;-75
2022/03/12 13:49:42;;;;;;;24.35;10.93;;;;;;;;;;8277458;28;20108;-76
2022/03/12 13:54:12;;;;;;;40.55;18.08;;;;;;;;;;8297178;28;20060;-79
2022/03/12 13:58:50;;;;;;;11.10;4.70;;;;;;;;;;8280927;28;20141;-80
2022/03/12 14:03:24;;;;;;;15.45;6.97;;;;;;;;;;8295666;28;20096;-78
2022/03/12 14:07:47;;;;;;;35.38;19.40;;;;;;;;;;8280727;28;20041;-79
2022/03/12 14:12:15;;;;;;;7.72;3.70;;;;;;;;;;8290111;28;20136;-80
2022/03/12 14:17:00;;;;;;;7.00;3.20;;;;;;;;;;8287920;28;20056;-79
2022/03/12 14:21:27;;;;;;;7.38;3.30;;;;;;;;;;8288594;28;20046;-76
2022/03/12 14:26:00;;;;;;;7.80;4.22;;;;;;;;;;8291879;28;20100;-76
2022/03/12 14:30:22;;;;;;;13.55;6.20;;;;;;;;;;8276596;28;20049;-78
2022/03/12 14:34:41;;;;;;;7.07;2.90;;;;;;;;;;8278294;28;20065;-78
2022/03/12 14:39:16;;;;;;;8.07;3.00;;;;;;;;;;8273821;28;20127;-77
2022/03/12 14:43:20;;;;;;;6.45;3.10;;;;;;;;;;8272394;28;20045;-80
2022/03/12 14:47:26;;;;;;;7.72;2.80;;;;;;;;;;8271273;28;20045;-79
2022/03/12 14:51:30;;;;;;;10.07;3.28;;;;;;;;;;8272455;28;20038;-78
2022/03/12 14:55:36;;;;;;;6.45;3.58;;;;;;;;;;8273830;28;20092;-76
2022/03/12 14:59:41;;;;;;;6.32;3.15;;;;;;;;;;8297815;28;20046;-77
2022/03/12 15:03:54;;;;;;;7.85;3.30;;;;;;;;;;8286305;28;20128;-75
2022/03/12 15:08:08;;;;;;;5.68;2.72;;;;;;;;;;8274795;28;20042;-76
2022/03/12 15:12:15;;;;;;;6.03;2.67;;;;;;;;;;8269550;28;20459;-76
2022/03/12 15:16:28;;;;;;;15.95;4.22;;;;;;;;;;8285199;28;20450;-79
2022/03/12 15:20:35;;;;;;;6.82;3.58;;;;;;;;;;8302523;28;20133;-76
2022/03/12 15:24:40;;;;;;;8.88;3.50;;;;;;;;;;8302437;28;20048;-77
2022/03/12 15:28:50;;;;;;;6.85;3.40;;;;;;;;;;8302482;28;20063;-78
2022/03/12 15:32:53;;;;;;;5.63;2.95;;;;;;;;;;8301953;28;20107;-76
2022/03/12 15:36:59;;;;;;;16.65;8.27;;;;;;;;;;8301316;28;20050;-80
2022/03/12 15:41:03;;;;;;;8.15;4.00;;;;;;;;;;8302083;28;20046;-76
2022/03/12 15:45:10;;;;;;;6.75;3.72;;;;;;;;;;8301857;28;20051;-79
2022/03/12 15:49:13;;;;;;;32.30;19.20;;;;;;;;;;8301781;28;20046;-80
2022/03/12 15:53:18;;;;;;;43.40;29.63;;;;;;;;;;8301351;28;20057;-78
2022/03/12 15:57:21;;;;;;;23.42;14.88;;;;;;;;;;8302088;28;20119;-79
2022/03/12 16:01:24;;;;;;;54.03;20.92;;;;;;;;;;8301471;28;20041;-78
2022/03/12 16:05:27;;;;;;;23.60;9.88;;;;;;;;;;8278633;28;20042;-78
2022/03/12 16:09:32;;;;;;;175.60;102.47;;;;;;;;;;8265487;28;20046;-78
2022/03/12 16:13:35;;;;;;;97.93;47.60;;;;;;;;;;8268156;28;20081;-77
2022/03/12 16:17:42;;;;;;;50.53;33.88;;;;;;;;;;8264332;28;20494;-78
2022/03/12 16:21:46;;;;;;;73.60;38.53;;;;;;;;;;8266520;28;20046;-77
2022/03/12 16:25:53;;;;;;;48.30;31.17;;;;;;;;;;8266377;28;20041;-80
2022/03/12 16:30:00;;;;;;;12.30;6.22;;;;;;;;;;8265506;28;20530;-79
2022/03/12 16:34:07;;;;;;;18.40;8.93;;;;;;;;;;8268069;28;20054;-79
2022/03/12 16:38:12;;;;;;;13.05;5.97;;;;;;;;;;8263552;28;20042;-80
2022/03/12 16:42:20;;;;;;;7.47;3.58;;;;;;;;;;8266413;28;20052;-77
2022/03/12 16:46:24;;;;;;;8.70;3.33;;;;;;;;;;8254307;28;20541;-78
2022/03/12 16:50:32;;;;;;;10.40;5.43;;;;;;;;;;8262897;28;20050;-78
2022/03/12 16:54:37;;;;;;;74.90;24.02;;;;;;;;;;8259501;28;20133;-77
2022/03/12 16:58:43;;;;;;;49.88;14.65;;;;;;;;;;8261834;28;20046;-78
2022/03/12 17:02:51;;;;;;;36.03;12.25;;;;;;;;;;8261906;28;20471;-76
2022/03/12 17:07:00;;;;;;;33.45;11.73;;;;;;;;;;8262085;28;20070;-77
2022/03/12 17:11:13;;;;;;;32.75;13.05;;;;;;;;;;8257320;28;20043;-75
2022/03/12 17:15:23;;;;;;;39.28;16.27;;;;;;;;;;8265434;28;20498;-76
2022/03/12 17:19:34;;;;;;;34.22;17.48;;;;;;;;;;8262619;28;20045;-77
2022/03/12 17:23:46;;;;;;;43.88;12.55;;;;;;;;;;8263447;28;20046;-76
2022/03/12 17:27:49;;;;;;;54.78;17.10;;;;;;;;;;8261067;28;20044;-76
2022/03/12 17:32:04;;;;;;;41.70;13.55;;;;;;;;;;8262244;28;20050;-76
2022/03/12 17:36:14;;;;;;;38.00;13.45;;;;;;;;;;8292119;28;20053;-76
2022/03/12 17:40:30;;;;;;;57.88;18.77;;;;;;;;;;8280016;28;20482;-76
2022/03/12 17:44:42;;;;;;;38.83;12.35;;;;;;;;;;8296231;28;20482;-77
2022/03/12 17:48:49;;;;;;;22.05;8.80;;;;;;;;;;8291470;28;20274;-77
2022/03/12 17:52:54;;;;;;;8.40;4.10;;;;;;;;;;8293882;28;20061;-77
2022/03/12 17:57:04;;;;;;;33.80;13.77;;;;;;;;;;8294957;28;20449;-76
2022/03/12 18:01:13;;;;;;;18.40;8.95;;;;;;;;;;8291509;28;20120;-76
2022/03/12 18:05:23;;;;;;;23.45;9.13;;;;;;;;;;8296019;28;20486;-77
2022/03/12 18:09:26;;;;;;;27.17;11.20;;;;;;;;;;8294429;28;20478;-77
2022/03/12 18:13:31;;;;;;;33.30;12.57;;;;;;;;;;8297681;28;20128;-77
2022/03/12 18:17:35;;;;;;;35.78;14.77;;;;;;;;;;8297305;28;20077;-76
2022/03/12 18:21:41;;;;;;;90.30;25.50;;;;;;;;;;8297778;28;20096;-77
2022/03/12 18:25:49;;;;;;;57.47;20.83;;;;;;;;;;8297505;28;20046;-78
2022/03/12 18:29:52;;;;;;;38.75;16.17;;;;;;;;;;8296487;28;20049;-76
2022/03/12 18:33:56;;;;;;;41.47;14.85;;;;;;;;;;8306662;28;20083;-77
2022/03/12 18:38:07;;;;;;;21.50;9.27;;;;;;;;;;8295293;28;20465;-77
2022/03/12 18:42:12;;;;;;;64.05;20.42;;;;;;;;;;8319359;28;20045;-76
2022/03/12 18:46:16;;;;;;;100.97;27.65;;;;;;;;;;8329997;28;20049;-77
2022/03/12 18:50:26;;;;;;;49.22;18.33;;;;;;;;;;8302901;28;20088;-76
2022/03/12 18:54:34;;;;;;;61.97;24.42;;;;;;;;;;8295795;28;20101;-77
2022/03/12 18:58:41;;;;;;;30.83;12.25;;;;;;;;;;8297444;28;20053;-78
2022/03/12 19:02:46;;;;;;;146.32;32.80;;;;;;;;;;8297296;28;20096;-77
2022/03/12 19:06:49;;;;;;;28.60;12.52;;;;;;;;;;8297465;28;20528;-76
2022/03/12 19:10:53;;;;;;;85.10;24.92;;;;;;;;;;8296440;28;20054;-77
2022/03/12 19:14:57;;;;;;;89.63;24.17;;;;;;;;;;8301155;28;20056;-77
2022/03/12 19:19:03;;;;;;;34.25;13.63;;;;;;;;;;8302793;28;20054;-77
2022/03/12 19:23:05;;;;;;;103.60;33.35;;;;;;;;;;8302693;28;20073;-77
2022/03/12 19:27:10;;;;;;;70.45;21.88;;;;;;;;;;8303061;28;20049;-77
2022/03/12 19:31:19;;;;;;;73.55;23.48;;;;;;;;;;8302219;28;20187;-76
2022/03/12 19:35:23;;;;;;;50.90;19.35;;;;;;;;;;8301875;28;20061;-76
2022/03/12 19:39:26;;;;;;;40.55;16.48;;;;;;;;;;8292965;28;20089;-78
2022/03/12 19:43:32;;;;;;;86.82;32.03;;;;;;;;;;8269608;28;20053;-76
2022/03/12 19:47:36;;;;;;;66.05;23.08;;;;;;;;;;8269588;28;20050;-76
2022/03/12 19:51:41;;;;;;;52.72;19.58;;;;;;;;;;8269309;28;20042;-76
2022/03/12 19:55:47;;;;;;;37.15;14.88;;;;;;;;;;8269236;28;20086;-76
2022/03/12 19:59:58;;;;;;;58.72;28.30;;;;;;;;;;8269121;28;20098;-77
2022/03/12 20:04:03;;;;;;;64.30;28.77;;;;;;;;;;8269058;28;20050;-77
2022/03/12 20:08:07;;;;;;;57.05;26.98;;;;;;;;;;8268670;28;20050;-77
2022/03/12 20:12:11;;;;;;;51.30;24.85;;;;;;;;;;8269128;28;20078;-76
2022/03/12 20:16:17;;;;;;;61.42;22.25;;;;;;;;;;8268686;28;20073;-77
2022/03/12 20:20:22;;;;;;;46.33;18.25;;;;;;;;;;8268322;28;20042;-76
2022/03/12 20:24:25;;;;;;;49.28;20.55;;;;;;;;;;8269048;28;20102;-76
2022/03/12 20:28:28;;;;;;;57.75;20.70;;;;;;;;;;8268217;28;20098;-77
2022/03/12 20:32:37;;;;;;;44.58;16.75;;;;;;;;;;8250176;28;20101;-77
2022/03/12 20:36:41;;;;;;;44.25;16.92;;;;;;;;;;8280812;28;20531;-77
2022/03/12 20:40:48;;;;;;;46.78;18.63;;;;;;;;;;8284618;28;20050;-77
2022/03/12 20:44:56;;;;;;;62.47;24.73;;;;;;;;;;8283129;28;20050;-77
2022/03/12 20:49:03;;;;;;;65.60;26.73;;;;;;;;;;8289737;28;20045;-76
2022/03/12 20:53:09;;;;;;;65.28;30.02;;;;;;;;;;8292126;28;20050;-77
2022/03/12 20:57:16;;;;;;;47.38;19.10;;;;;;;;;;8279075;28;20430;-78
2022/03/12 21:01:19;;;;;;;44.17;18.45;;;;;;;;;;8295272;28;20050;-77
2022/03/12 21:05:27;;;;;;;84.50;26.17;;;;;;;;;;8315888;28;20096;-77
2022/03/12 21:09:30;;;;;;;191.20;46.75;;;;;;;;;;8329640;28;20124;-77
2022/03/12 21:13:34;;;;;;;98.97;30.38;;;;;;;;;;8330537;28;20433;-76
2022/03/12 21:17:37;;;;;;;105.45;32.22;;;;;;;;;;8328473;28;20069;-79
2022/03/12 21:21:42;;;;;;;169.15;46.42;;;;;;;;;;8331526;28;20049;-78
2022/03/12 21:25:45;;;;;;;114.70;39.13;;;;;;;;;;8266694;28;20046;-76
2022/03/12 21:29:48;;;;;;;71.60;25.00;;;;;;;;;;8329884;28;20481;-78
2022/03/12 21:33:51;;;;;;;99.65;28.67;;;;;;;;;;8312105;28;20108;-80
2022/03/12 21:37:57;;;;;;;46.97;18.40;;;;;;;;;;8321517;28;20050;-77
2022/03/12 21:42:00;;;;;;;53.53;20.25;;;;;;;;;;8298839;28;20088;-77
2022/03/12 21:46:04;;;;;;;43.58;19.35;;;;;;;;;;8298554;28;20050;-78
2022/03/12 21:50:09;;;;;;;64.05;22.48;;;;;;;;;;8307713;28;20386;-78
2022/03/12 21:54:13;;;;;;;55.35;20.33;;;;;;;;;;8331551;28;20209;-78
2022/03/12 21:58:16;;;;;;;48.97;18.65;;;;;;;;;;8318550;28;20482;-77
2022/03/12 22:02:19;;;;;;;50.55;20.98;;;;;;;;;;8298259;28;20050;-78
2022/03/12 22:06:22;;;;;;;70.18;22.40;;;;;;;;;;8299166;28;20078;-78
2022/03/12 22:10:27;;;;;;;66.68;22.23;;;;;;;;;;8297937;28;20054;-77
2022/03/12 22:14:32;;;;;;;57.08;19.98;;;;;;;;;;8298058;28;20046;-77
2022/03/12 22:18:34;;;;;;;50.67;19.77;;;;;;;;;;8328935;28;20126;-77
2022/03/12 22:22:37;;;;;;;59.95;20.48;;;;;;;;;;8330612;28;20049;-77
2022/03/12 22:26:44;;;;;;;46.65;19.23;;;;;;;;;;8331003;28;20489;-77
2022/03/12 22:30:48;;;;;;;79.53;31.10;;;;;;;;;;8330168;28;20124;-77
2022/03/12 22:34:51;;;;;;;67.20;26.45;;;;;;;;;;8330153;28;20061;-78
2022/03/12 22:38:55;;;;;;;66.78;24.98;;;;;;;;;;8329870;28;20124;-77
2022/03/12 22:43:00;;;;;;;63.63;21.40;;;;;;;;;;8308702;28;20100;-77
2022/03/12 22:47:03;;;;;;;51.75;19.58;;;;;;;;;;8299035;28;20509;-77
2022/03/12 22:51:08;;;;;;;46.05;19.00;;;;;;;;;;8304357;28;20395;-77
2022/03/12 22:55:10;;;;;;;47.60;18.17;;;;;;;;;;8314794;28;20050;-77
2022/03/12 22:59:14;;;;;;;50.95;19.35;;;;;;;;;;8336218;28;20092;-77
2022/03/12 23:03:23;;;;;;;69.05;21.27;;;;;;;;;;8336303;28;20136;-78
2022/03/12 23:11:46;;;;;;;51.60;20.15;;;;;;;;;;8303438;28;20418;-77
2022/03/12 23:15:52;;;;;;;55.05;18.92;;;;;;;;;;8303152;28;20050;-77
2022/03/12 23:19:57;;;;;;;60.67;19.58;;;;;;;;;;8303188;28;20050;-77
2022/03/12 23:24:02;;;;;;;66.50;22.30;;;;;;;;;;8313169;28;20069;-78
2022/03/12 23:28:10;;;;;;;64.68;22.13;;;;;;;;;;8335759;28;20477;-78
2022/03/12 23:32:14;;;;;;;75.90;23.65;;;;;;;;;;8335460;28;20052;-78
2022/03/12 23:36:17;;;;;;;60.22;20.73;;;;;;;;;;8326440;28;20096;-77
2022/03/12 23:40:24;;;;;;;57.40;20.55;;;;;;;;;;8302816;28;20050;-76
2022/03/12 23:44:28;;;;;;;62.45;20.80;;;;;;;;;;8302344;28;20046;-77
2022/03/12 23:48:33;;;;;;;65.78;21.85;;;;;;;;;;8302515;28;20045;-78
2022/03/12 23:52:37;;;;;;;57.90;21.65;;;;;;;;;;8316000;28;20049;-77
2022/03/12 23:56:40;;;;;;;57.72;20.70;;;;;;;;;;8301944;28;20042;-76
